"WATCHING THE WEATHER TO PROTECT LIFE AND PROPERTY"


Aviation
Satellite (InfraRed)


TNCA 170100Z 08012KT 9999 FEW018 27/23 Q1013 NOSIG
TNCB 170055Z AUTO 07012KT 9999 NCD 27/23 Q1013
TNCC 170100Z 09012KT 9999 FEW017 27/23 Q1013 NOSIG